M I D A S
Marine Information and Data Acquisition System
Tripno 651 of the Zeeleeuw from 2004-02-18 07:12:45 to 2004-02-18 11:52:08
Back to CruiseResearch ActivitiesStationsMapUnderway DataData graphs

EquipmentUnitsComment
TimeDGPSUTC
LatitudeDGPSDM.mWGS84
LongitudeDGPSDM.mWGS84
TemperatureSBE03/SBE38deg celciusITS90
ConductivitySBE21S/mITS90
SalinitySBE21 Practical Salinity Units
ChlorophylAChelsea fluorimeterg/lCalibrated in Aceton
Missing or incorrect values are displayed as -999
Sea surface data collected by the RV Zeeleeuw from 2004-02-18 07:12:45 to 2004-02-18 11:52:08
Time Latitude Longitude Temperature Conductivity Salinity ChlorophylA
2004-02-18 07:13:48 51°13.592 2°56.105 7.410342 1.944097 17.818052 4.106614
2004-02-18 07:14:50 51°13.612 2°56.028 7.185425 2.086096 19.352914 5.421281
2004-02-18 07:15:49 51°13.648 2°55.949 7.102821 2.080424 19.360461 5.320153
2004-02-18 07:16:50 51°13.673 2°55.865 7.042749 2.250325 21.141742 5.320153
2004-02-18 07:17:50 51°13.688 2°55.755 7.02895 2.378561 22.493737 5.4887
2004-02-18 07:18:49 51°13.695 2°55.782 7.047266 2.224998 20.913293 5.589828
2004-02-18 07:19:49 51°13.712 2°55.77 7.034254 2.155331 20.201292 5.690956
2004-02-18 07:20:49 51°13.785 2°55.678 7.04923 2.131061 19.953793 5.589828
2004-02-18 07:21:49 51°13.888 2°55.583 7.024726 2.116143 19.796359 5.421281
2004-02-18 07:22:48 51°14.013 2°55.494 6.995201 2.319063 21.911927 5.589828
2004-02-18 07:23:49 51°14.155 2°55.393 6.94393 2.470138 23.50269 5.4887
2004-02-18 07:24:48 51°14.286 2°55.224 6.885923 2.562786 24.517888 5.724665
2004-02-18 07:25:49 51°14.388 2°54.953 6.806922 2.529764 24.202207 6.061759
2004-02-18 07:26:48 51°14.389 2°54.645 6.713461 2.891884 28.142265 5.859503
2004-02-18 07:27:49 51°14.34 2°54.422 6.688976 3.108524 30.511064 5.151606
2004-02-18 07:28:48 51°14.282 2°54.239 6.691198 3.151693 30.986286 5.320153
2004-02-18 07:29:48 51°14.241 2°54.078 6.682211 3.165908 31.145625 5.421281
2004-02-18 07:30:49 51°14.22 2°53.963 6.690704 3.168014 31.167781 4.780802
2004-02-18 07:31:48 51°14.205 2°53.883 6.692136 3.180545 31.304262 5.421281
2004-02-18 07:32:49 51°14.167 2°53.744 6.696283 3.184125 31.340936 5.353862
2004-02-18 07:33:48 51°14.086 2°53.441 6.697962 3.167067 31.144307 5.320153
2004-02-18 07:34:48 51°13.97 2°53.101 6.704922 3.180756 31.294115 4.34258
2004-02-18 07:35:48 51°13.852 2°52.756 6.699146 3.190022 31.391158 4.174033
2004-02-18 07:36:48 51°13.734 2°52.408 6.717558 3.199815 31.503348 3.971777
2004-02-18 07:37:49 51°13.616 2°52.052 6.699739 3.204238 31.547648 4.241452
2004-02-18 07:38:49 51°13.494 2°51.706 6.705119 3.196024 31.462027 4.409999
2004-02-18 07:39:49 51°13.375 2°51.358 6.706057 3.208556 31.601001 4.612255
2004-02-18 07:40:48 51°13.263 2°51.016 6.714448 3.212031 31.631046 5.522409
2004-02-18 07:41:48 51°13.148 2°50.667 6.711783 3.210346 31.611888 5.387571
2004-02-18 07:42:48 51°13.031 2°50.318 6.721407 3.219929 31.706955 5.050477
2004-02-18 07:43:48 51°12.912 2°49.972 6.718002 3.229617 31.812639 4.949349
2004-02-18 07:44:49 51°12.797 2°49.618 6.725157 3.234777 31.873696 4.679674
2004-02-18 07:45:49 51°12.68 2°49.268 6.733348 3.228353 31.791747 4.645965
2004-02-18 07:46:49 51°12.555 2°48.93 6.749777 3.234882 31.855069 4.578546
2004-02-18 07:47:49 51°12.431 2°48.591 6.774929 3.251627 32.019517 4.544836
2004-02-18 07:48:48 51°12.312 2°48.261 6.80012 3.241306 31.883218 4.275161
2004-02-18 07:49:48 51°12.192 2°47.92 6.820719 3.25805 32.042728 3.971777
2004-02-18 07:50:48 51°12.072 2°47.582 6.835105 3.271741 32.175242 3.466136
2004-02-18 07:51:48 51°11.953 2°47.242 6.840376 3.265633 32.099938 3.23017
2004-02-18 07:52:48 51°11.832 2°46.906 6.848503 3.276586 32.211306 2.724529
2004-02-18 07:53:49 51°11.71 2°46.561 6.850128 3.266054 32.094997 2.6234
2004-02-18 07:54:48 51°11.591 2°46.229 6.855447 3.279535 32.239451 2.690819
2004-02-18 07:55:49 51°11.486 2°45.867 6.860618 3.268792 32.116079 2.791947
2004-02-18 07:56:48 51°11.391 2°45.509 6.862243 3.283853 32.276125 2.758238
2004-02-18 07:57:48 51°11.298 2°45.151 6.869481 3.299335 32.444051 2.454853
2004-02-18 07:58:48 51°11.21 2°44.791 6.877752 3.30776 32.5311 2.353725
2004-02-18 07:59:48 51°11.125 2°44.432 6.890599 3.316397 32.614008 2.252597
2004-02-18 08:00:49 51°11.048 2°44.061 6.892814 3.319873 32.645459 2.117759
2004-02-18 08:01:48 51°10.977 2°43.701 6.90428 3.333565 32.783476 2.185178
2004-02-18 08:02:48 51°10.906 2°43.334 6.911907 3.345678 32.908321 1.915503
2004-02-18 08:03:48 51°10.837 2°42.969 6.933552 3.361688 33.069196 1.780665
2004-02-18 08:04:48 51°10.774 2°42.601 6.941668 3.368745 33.133968 1.679537
2004-02-18 08:05:48 51°10.708 2°42.232 6.944569 3.374012 33.184906 1.612118
2004-02-18 08:06:49 51°10.642 2°41.855 6.949683 3.378436 33.229919 1.477281
2004-02-18 08:07:49 51°10.581 2°41.488 6.97048 3.405191 33.504803 1.477281
2004-02-18 08:08:49 51°10.518 2°41.125 6.979918 3.414777 33.599598 1.477281
2004-02-18 08:09:49 51°10.455 2°40.76 6.984243 3.422362 33.677494 1.409862
2004-02-18 08:10:48 51°10.392 2°40.401 6.987191 3.413302 33.576036 1.342443
2004-02-18 08:11:49 51°10.326 2°40.029 6.992056 3.431948 33.777274 1.713247
2004-02-18 08:12:49 51°10.261 2°39.662 7.001982 3.435003 33.800673 1.915503
2004-02-18 08:13:49 51°10.2 2°39.296 7.012594 3.433738 33.776871 2.151469
2004-02-18 08:14:48 51°10.138 2°38.94 7.030915 3.426364 33.68222 2.454853
2004-02-18 08:15:49 51°10.074 2°38.572 7.057969 3.452384 33.944714 2.859366
2004-02-18 08:16:49 51°10.011 2°38.209 7.099878 3.459021 33.992963 3.533554
2004-02-18 08:17:48 51°9.951 2°37.849 7.079466 3.463761 34.026323 3.499845
2004-02-18 08:18:49 51°9.895 2°37.477 7.095806 3.467659 34.066359 3.80323
2004-02-18 08:19:48 51°9.851 2°37.115 7.114544 3.47103 34.088085 4.106614
2004-02-18 08:20:49 51°9.8 2°36.793 7.133718 3.477351 34.136114 4.477418
2004-02-18 08:21:48 51°9.755 2°36.698 7.140533 3.483988 34.1951 4.780802
2004-02-18 08:22:49 51°9.73 2°36.674 7.145387 3.485147 34.199351 4.679674
2004-02-18 08:23:48 51°9.717 2°36.675 7.145583 3.486727 34.216586 4.679674
2004-02-18 08:24:48 51°9.702 2°36.658 7.148181 3.486622 34.217954 4.544836
2004-02-18 08:25:48 51°9.687 2°36.636 7.150142 3.487359 34.220962 4.477418
2004-02-18 08:26:49 51°9.672 2°36.612 7.15171 3.486833 34.213539 4.477418
2004-02-18 08:27:48 51°9.659 2°36.593 7.149308 3.487043 34.214998 4.612255
2004-02-18 08:28:48 51°9.647 2°36.577 7.156955 3.486938 34.21301 4.578546
2004-02-18 08:29:48 51°9.635 2°36.561 7.154651 3.487254 34.218135 4.645965
2004-02-18 08:30:48 51°9.624 2°36.546 7.153671 3.487254 34.214778 4.544836
2004-02-18 08:31:49 51°9.612 2°36.533 7.155778 3.487359 34.217605 4.645965
2004-02-18 08:32:48 51°9.602 2°36.522 7.153524 3.48757 34.217386 4.578546
2004-02-18 08:33:48 51°9.591 2°36.514 7.153181 3.486622 34.206208 4.578546
2004-02-18 08:34:49 51°9.579 2°36.506 7.152543 3.487781 34.218005 4.544836
2004-02-18 08:35:49 51°9.57 2°36.5 7.151122 3.488097 34.223969 4.544836
2004-02-18 08:36:49 51°9.559 2°36.494 7.155141 3.488202 34.226796 4.443708
2004-02-18 08:37:49 51°9.547 2°36.488 7.1547 3.48757 34.216547 4.612255
2004-02-18 08:38:48 51°9.537 2°36.481 7.155876 3.488307 34.222071 4.612255
2004-02-18 08:39:48 51°9.527 2°36.475 7.156563 3.48915 34.2321 4.511127
2004-02-18 08:40:49 51°9.516 2°36.471 7.154749 3.48915 34.228743 4.409999
2004-02-18 08:41:48 51°9.505 2°36.469 7.155975 3.488518 34.223529 4.511127
2004-02-18 08:42:48 51°9.493 2°36.467 7.155778 3.489572 34.235016 4.409999
2004-02-18 08:43:48 51°9.481 2°36.467 7.160631 3.489256 34.232409 4.34258
2004-02-18 08:44:49 51°9.469 2°36.466 7.160435 3.489782 34.234796 4.511127
2004-02-18 08:45:48 51°9.458 2°36.464 7.158719 3.489361 34.230201 4.241452
2004-02-18 08:46:49 51°9.446 2°36.46 7.159356 3.489888 34.235945 4.443708
2004-02-18 08:47:48 51°9.436 2°36.456 7.158523 3.489466 34.229672 4.308871
2004-02-18 08:48:48 51°9.474 2°36.335 7.158523 3.490204 34.236033 4.376289
2004-02-18 08:49:49 51°9.572 2°36.045 7.163228 3.491152 34.243853 4.578546
2004-02-18 08:50:48 51°9.677 2°35.742 7.176802 3.493786 34.265009 4.747093
2004-02-18 08:51:49 51°9.849 2°35.519 7.198799 3.500528 34.328426 4.409999
2004-02-18 08:52:48 51°10.046 2°35.383 7.196888 3.50864 34.39665 4.140324
2004-02-18 08:53:48 51°10.256 2°35.318 7.177586 3.503899 34.352556 4.814512
2004-02-18 08:54:48 51°10.462 2°35.458 7.141661 3.49368 34.27478 4.544836
2004-02-18 08:55:49 51°10.653 2°35.673 7.129011 3.484199 34.199076 4.409999
2004-02-18 08:56:49 51°10.839 2°35.882 7.104734 3.47988 34.165375 3.76952
2004-02-18 08:57:48 51°11.022 2°36.092 7.080399 3.467659 34.057155 3.533554
2004-02-18 08:58:48 51°11.209 2°36.306 7.067884 3.455123 33.941231 3.263879
2004-02-18 08:59:49 51°11.398 2°36.524 7.055121 3.446695 33.858429 3.398717
2004-02-18 09:00:49 51°11.577 2°36.736 7.043977 3.439321 33.788775 3.533554
2004-02-18 09:01:48 51°11.757 2°36.947 7.027231 3.431947 33.723252 3.331298
2004-02-18 09:02:48 51°11.942 2°37.162 7.019029 3.424784 33.659171 3.365007
2004-02-18 09:03:49 51°12.13 2°37.376 7.012594 3.419938 33.612909 2.893076
2004-02-18 09:04:48 51°12.321 2°37.566 7.015443 3.418147 33.591712 2.724529
2004-02-18 09:05:49 51°12.519 2°37.764 7.020453 3.417831 33.58909 2.724529
2004-02-18 09:06:48 51°12.708 2°37.957 7.019864 3.418569 33.593829 2.555982
2004-02-18 09:07:49 51°12.905 2°38.157 7.017408 3.418779 33.596128 2.454853
2004-02-18 09:08:48 51°13.094 2°38.354 7.020502 3.421308 33.625372 2.286306
2004-02-18 09:09:48 51°13.298 2°38.521 7.021141 3.425837 33.673154 2.185178
2004-02-18 09:10:49 51°13.517 2°38.629 7.028459 3.433001 33.751357 2.218888
2004-02-18 09:11:48 51°13.732 2°38.699 7.025709 3.44206 33.841135 2.218888
2004-02-18 09:12:49 51°13.955 2°38.756 7.019176 3.430578 33.724073 2.421144
2004-02-18 09:13:48 51°14.135 2°38.637 7.025758 3.417094 33.580217 2.589691
2004-02-18 09:14:48 51°14.098 2°38.317 7.042062 3.412038 33.514324 2.859366
2004-02-18 09:15:49 51°14.011 2°37.978 7.055465 3.413091 33.496964 3.297589
2004-02-18 09:16:48 51°13.93 2°37.651 7.054925 3.417726 33.544176 3.567264
2004-02-18 09:17:49 51°13.843 2°37.317 7.054041 3.421202 33.585366 3.331298
2004-02-18 09:18:48 51°13.764 2°36.996 7.06489 3.427522 33.65593 3.19646
2004-02-18 09:19:48 51°13.688 2°36.671 7.072596 3.43911 33.769037 2.960494
2004-02-18 09:20:49 51°13.609 2°36.342 7.082509 3.447117 33.856369 2.825657
2004-02-18 09:21:49 51°13.53 2°36.021 7.094039 3.454175 33.91588 3.162751
2004-02-18 09:22:49 51°13.454 2°35.696 7.101889 3.457862 33.950264 3.23017
2004-02-18 09:23:48 51°13.379 2°35.383 7.103851 3.463129 33.994366 2.994204
2004-02-18 09:24:48 51°13.302 2°35.065 7.091586 3.458494 33.95549 2.488563
2004-02-18 09:25:48 51°13.225 2°34.749 7.097964 3.45902 33.958734 3.061623
2004-02-18 09:26:48 51°13.145 2°34.429 7.123764 3.462918 33.9904 3.129042
2004-02-18 09:27:49 51°13.057 2°34.11 7.114593 3.465447 34.013799 2.791947
2004-02-18 09:28:49 51°12.969 2°33.797 7.12705 3.46966 34.049727 2.960494
2004-02-18 09:29:49 51°12.88 2°33.48 7.137984 3.471978 34.062463 3.19646
2004-02-18 09:30:49 51°12.785 2°33.169 7.144504 3.475033 34.088245 3.297589
2004-02-18 09:31:49 51°12.688 2°32.868 7.175969 3.478193 34.10179 3.398717
2004-02-18 09:32:48 51°12.591 2°32.571 7.190226 3.485779 34.164351 3.735811
2004-02-18 09:33:48 51°12.494 2°32.27 7.192186 3.487675 34.180822 3.600973
2004-02-18 09:34:48 51°12.396 2°31.966 7.196399 3.489466 34.193631 3.499845
2004-02-18 09:35:49 51°12.295 2°31.647 7.207076 3.491889 34.214158 3.499845
2004-02-18 09:36:49 51°12.198 2°31.333 7.241594 3.495892 34.241832 3.466136
2004-02-18 09:37:49 51°12.098 2°31.022 7.34704 3.509061 34.324779 2.994204
2004-02-18 09:38:50 51°11.999 2°30.706 7.390372 3.528024 34.444444 2.791947
2004-02-18 09:39:49 51°11.904 2°30.408 7.423864 3.53561 34.483973 2.522272
2004-02-18 09:40:49 51°11.81 2°30.101 7.450654 3.540772 34.517303 2.421144
2004-02-18 09:41:49 51°11.721 2°29.802 7.468509 3.545408 34.5407 2.117759
2004-02-18 09:42:49 51°11.664 2°29.567 7.496061 3.55036 34.572529 1.881794
2004-02-18 09:43:49 51°11.631 2°29.44 7.520336 3.557735 34.622169 1.949212
2004-02-18 09:44:48 51°11.57 2°29.254 7.533542 3.561422 34.650327 2.218888
2004-02-18 09:45:48 51°11.496 2°29.018 7.554052 3.564162 34.664852 2.522272
2004-02-18 09:46:49 51°11.425 2°28.714 7.579522 3.566163 34.668873 2.488563
2004-02-18 09:47:49 51°11.355 2°28.413 7.651544 3.575751 34.709553 2.353725
2004-02-18 09:48:48 51°11.291 2°28.111 7.668516 3.580492 34.72384 2.252597
2004-02-18 09:49:49 51°11.238 2°27.789 7.670655 3.58123 34.721741 2.488563
2004-02-18 09:50:49 51°11.185 2°27.474 7.667495 3.580387 34.717675 2.286306
2004-02-18 09:51:49 51°11.134 2°27.154 7.65349 3.578912 34.708463 2.353725
2004-02-18 09:52:49 51°11.098 2°26.83 7.653441 3.57691 34.696915 1.915503
2004-02-18 09:53:49 51°11.108 2°26.507 7.628146 3.57554 34.692187 1.713247
2004-02-18 09:54:48 51°11.181 2°26.204 7.619728 3.573854 34.682367 1.713247
2004-02-18 09:55:49 51°11.304 2°25.93 7.614181 3.573117 34.686138 1.679537
2004-02-18 09:56:48 51°11.459 2°25.717 7.607708 3.572169 34.680927 1.578409
2004-02-18 09:57:49 51°11.682 2°25.692 7.599239 3.570061 34.668225 1.51099
2004-02-18 09:58:48 51°11.912 2°25.739 7.628487 3.570693 34.662482 1.342443
2004-02-18 09:59:49 51°12.137 2°25.876 7.65456 3.573433 34.664417 1.342443
2004-02-18 10:00:48 51°12.349 2°26.031 7.670996 3.576488 34.67562 1.173896
2004-02-18 10:01:49 51°12.559 2°26.207 7.683004 3.578806 34.683047 1.072768
2004-02-18 10:02:49 51°12.765 2°26.397 7.695156 3.579227 34.682571 0.904221
2004-02-18 10:03:49 51°12.968 2°26.589 7.698898 3.58007 34.684967 0.870512
2004-02-18 10:04:49 51°13.169 2°26.788 7.717509 3.581229 34.687423 0.904221
2004-02-18 10:05:49 51°13.364 2°26.981 7.719404 3.58439 34.70225 1.005349
2004-02-18 10:06:49 51°13.559 2°27.194 7.709201 3.582177 34.690116 1.106477
2004-02-18 10:07:49 51°13.755 2°27.411 7.698266 3.579754 34.671527 1.106477
2004-02-18 10:08:50 51°13.953 2°27.631 7.660784 3.576066 34.652675 1.140187
2004-02-18 10:09:49 51°14.141 2°27.844 7.63773 3.569639 34.617633 1.679537
2004-02-18 10:10:49 51°14.329 2°28.071 7.610434 3.566479 34.602753 1.746956
2004-02-18 10:11:49 51°14.518 2°28.301 7.530131 3.55805 34.559395 1.679537
2004-02-18 10:12:48 51°14.705 2°28.529 7.488113 3.547304 34.512636 1.679537
2004-02-18 10:13:49 51°14.896 2°28.764 7.45041 3.539613 34.469551 1.645828
2004-02-18 10:14:49 51°15.086 2°28.997 7.422887 3.534345 34.445126 1.645828
2004-02-18 10:15:49 51°15.275 2°29.23 7.405216 3.529815 34.420295 1.578409
2004-02-18 10:16:49 51°15.466 2°29.454 7.376794 3.524969 34.392849 1.578409
2004-02-18 10:17:49 51°15.662 2°29.677 7.365021 3.522019 34.375911 1.814375
2004-02-18 10:18:49 51°15.855 2°29.9 7.357595 3.520017 34.363395 1.477281
2004-02-18 10:19:49 51°16.047 2°30.123 7.338928 3.516857 34.340804 1.342443
2004-02-18 10:20:49 51°16.23 2°30.363 7.313557 3.512116 34.311082 1.814375
2004-02-18 10:21:49 51°16.412 2°30.604 7.281719 3.502845 34.237965 1.780665
2004-02-18 10:22:48 51°16.588 2°30.84 7.280154 3.497893 34.199198 1.780665
2004-02-18 10:23:48 51°16.77 2°31.083 7.276436 3.495575 34.182358 1.780665
2004-02-18 10:24:49 51°16.946 2°31.344 7.276045 3.494627 34.177061 1.915503
2004-02-18 10:25:49 51°17.115 2°31.599 7.265232 3.494206 34.170811 1.915503
2004-02-18 10:26:49 51°17.293 2°31.858 7.264547 3.492836 34.161767 2.050341
2004-02-18 10:27:49 51°17.47 2°32.118 7.264938 3.49231 34.162718 2.08405
2004-02-18 10:28:48 51°17.64 2°32.37 7.257549 3.491888 34.154798 1.982922
2004-02-18 10:29:49 51°17.821 2°32.633 7.259066 3.492204 34.161572 1.848084
2004-02-18 10:30:48 51°17.997 2°32.887 7.2598 3.491045 34.14647 1.679537
2004-02-18 10:31:49 51°18.175 2°33.148 7.257843 3.491256 34.152099 1.612118
2004-02-18 10:32:49 51°18.348 2°33.403 7.261366 3.492099 34.158758 1.814375
2004-02-18 10:33:49 51°18.522 2°33.656 7.259947 3.49094 34.150331 1.612118
2004-02-18 10:34:48 51°18.695 2°33.911 7.264547 3.490729 34.143034 2.151469
2004-02-18 10:35:48 51°18.868 2°34.166 7.259164 3.491361 34.15074 1.982922
2004-02-18 10:36:49 51°19.049 2°34.426 7.264058 3.49231 34.158544 1.949212
2004-02-18 10:37:49 51°19.226 2°34.683 7.269929 3.494206 34.173315 1.881794
2004-02-18 10:38:49 51°19.404 2°34.943 7.26807 3.493363 34.167493 1.780665
2004-02-18 10:39:48 51°19.539 2°35.257 7.268461 3.493995 34.171025 1.814375
2004-02-18 10:40:48 51°19.66 2°35.596 7.266504 3.492731 34.162291 1.342443
2004-02-18 10:41:48 51°19.736 2°35.971 7.272375 3.493047 34.163222 1.207606
2004-02-18 10:42:49 51°19.784 2°36.368 7.277953 3.493152 34.160195 1.275024
2004-02-18 10:43:48 51°19.822 2°36.753 7.274235 3.493363 34.159147 1.342443
2004-02-18 10:44:49 51°19.865 2°37.149 7.273696 3.491888 34.147289 1.848084
2004-02-18 10:45:49 51°19.907 2°37.54 7.271446 3.490835 34.135005 1.982922
2004-02-18 10:46:48 51°19.946 2°37.919 7.256375 3.487042 34.101288 1.881794
2004-02-18 10:47:49 51°19.983 2°38.315 7.249034 3.482828 34.067978 1.645828
2004-02-18 10:48:49 51°20.003 2°38.708 7.251334 3.4803 34.044656 1.645828
2004-02-18 10:49:48 51°20.022 2°39.095 7.239 3.478403 34.025707 1.376153
2004-02-18 10:50:49 51°20.042 2°39.488 7.228866 3.475664 34.005911 1.173896
2004-02-18 10:51:49 51°20.065 2°39.877 7.222844 3.471766 33.971845 1.241315
2004-02-18 10:52:48 51°20.089 2°40.257 7.208643 3.466288 33.920588 1.308734
2004-02-18 10:53:49 51°20.119 2°40.649 7.130041 3.440057 33.68996 1.5447
2004-02-18 10:54:48 51°20.146 2°41.031 7.111454 3.423097 33.549951 1.612118
2004-02-18 10:55:48 51°20.17 2°41.425 7.102674 3.420464 33.531166 1.645828
2004-02-18 10:56:49 51°20.193 2°41.824 7.101693 3.419727 33.524785 1.780665
2004-02-18 10:57:48 51°20.216 2°42.212 7.097425 3.41762 33.505143 1.679537
2004-02-18 10:58:49 51°20.241 2°42.61 7.094873 3.418357 33.512347 1.275024
2004-02-18 10:59:48 51°20.26 2°42.998 7.078828 3.415408 33.482708 1.106477
2004-02-18 11:00:49 51°20.265 2°43.402 7.054091 3.404979 33.398742 1.477281
2004-02-18 11:01:49 51°20.273 2°43.797 7.039803 3.398238 33.347469 1.679537
2004-02-18 11:02:48 51°20.28 2°44.187 7.041276 3.398659 33.357802 1.578409
2004-02-18 11:03:49 51°20.285 2°44.592 7.058705 3.401925 33.38435 1.713247
2004-02-18 11:04:49 51°20.291 2°44.988 7.077945 3.413512 33.490028 1.881794
2004-02-18 11:05:48 51°20.294 2°45.372 7.042553 3.403399 33.380717 2.050341
2004-02-18 11:06:48 51°20.297 2°45.764 7.034107 3.389073 33.251749 1.949212
2004-02-18 11:07:49 51°20.205 2°46.127 7.027821 3.385176 33.210943 2.016631
2004-02-18 11:08:49 51°20.074 2°46.455 7.027526 3.380963 33.173228 2.08405
2004-02-18 11:09:49 51°19.934 2°46.77 7.02561 3.377697 33.137673 2.252597
2004-02-18 11:10:49 51°19.801 2°47.088 7.026102 3.378119 33.142261 2.320016
2004-02-18 11:11:49 51°19.67 2°47.397 7.010137 3.376644 33.129466 2.454853
2004-02-18 11:12:48 51°19.537 2°47.699 6.971463 3.366848 33.047223 2.589691
2004-02-18 11:13:48 51°19.401 2°48.005 6.924059 3.349048 32.908528 2.286306
2004-02-18 11:14:48 51°19.264 2°48.309 6.900098 3.343781 32.868964 2.320016
2004-02-18 11:15:48 51°19.129 2°48.618 6.893355 3.336514 32.809164 2.185178
2004-02-18 11:16:49 51°18.99 2°48.931 6.885923 3.331353 32.765826 2.286306
2004-02-18 11:17:50 51°18.851 2°49.245 6.89557 3.326719 32.708003 2.286306
2004-02-18 11:18:49 51°18.713 2°49.545 6.899163 3.319767 32.62738 2.488563
2004-02-18 11:19:48 51°18.574 2°49.843 6.914367 3.320715 32.62482 2.589691
2004-02-18 11:20:48 51°18.437 2°50.151 6.901574 3.315449 32.566648 2.522272
2004-02-18 11:21:49 51°18.304 2°50.466 6.861553 3.297649 32.403247 2.65711
2004-02-18 11:22:48 51°18.173 2°50.767 6.807661 3.282378 32.27842 3.870648
2004-02-18 11:23:49 51°18.037 2°51.081 6.788733 3.267845 32.159045 4.645965
2004-02-18 11:24:50 51°17.898 2°51.392 6.775619 3.258788 32.075387 4.747093
2004-02-18 11:25:49 51°17.764 2°51.683 6.757027 3.249942 31.998752 4.814512
2004-02-18 11:26:49 51°17.628 2°51.985 6.771872 3.247941 31.984065 5.387571
2004-02-18 11:27:49 51°17.476 2°52.255 6.769751 3.255102 32.042337 6.466272
2004-02-18 11:28:50 51°17.289 2°52.466 6.752342 3.250152 31.996289 6.634819
2004-02-18 11:29:48 51°17.106 2°52.659 6.751158 3.247204 31.971263 6.60111
2004-02-18 11:30:48 51°16.918 2°52.858 6.75757 3.246993 31.97769 5.792084
2004-02-18 11:31:49 51°16.707 2°52.995 6.775422 3.256682 32.055594 4.679674
2004-02-18 11:32:49 51°16.492 2°53.087 6.78967 3.260473 32.092971 4.106614
2004-02-18 11:33:48 51°16.275 2°53.152 6.801402 3.263843 32.118586 3.904358
2004-02-18 11:34:48 51°16.06 2°53.226 6.826583 3.278376 32.253156 3.263879
2004-02-18 11:35:50 51°15.836 2°53.298 6.802338 3.263106 32.093055 2.994204
2004-02-18 11:36:48 51°15.63 2°53.374 6.777591 3.247835 31.941714 3.027913
2004-02-18 11:37:48 51°15.418 2°53.479 6.768617 3.241411 31.889898 3.129042
2004-02-18 11:38:49 51°15.204 2°53.61 6.78548 3.238989 31.86508 3.23017
2004-02-18 11:39:50 51°14.993 2°53.766 6.783508 3.247203 31.9467 4.645965
2004-02-18 11:40:50 51°14.804 2°53.903 6.764968 3.235409 31.831584 4.713383
2004-02-18 11:41:50 51°14.694 2°53.989 6.779416 3.243307 31.904232 5.4887
2004-02-18 11:42:50 51°14.631 2°54.032 6.769258 3.242886 31.904386 5.45499
2004-02-18 11:43:49 51°14.589 2°54.073 6.762502 3.237304 31.853824 5.320153
2004-02-18 11:44:50 51°14.564 2°54.131 7.219808 3.236251 31.837609 0.297452
2004-02-18 11:45:49 51°14.549 2°54.19 7.177096 3.236356 31.8356 -0.882377
2004-02-18 11:46:49 51°14.526 2°54.329 7.271397 3.236778 31.834666 -0.848668
2004-02-18 11:47:48 51°14.462 2°54.629 7.405899 3.237409 31.819471 -0.848668
2004-02-18 11:48:49 51°14.38 2°54.984 7.551616 3.238146 31.815679 -0.848668
2004-02-18 11:49:50 51°14.268 2°55.264 7.644492 3.239726 31.82342 -0.848668
2004-02-18 11:50:49 51°14.128 2°55.402 7.729898 3.242042 31.822646 -0.882377
2004-02-18 11:51:49 51°13.978 2°55.512 7.823437 2.712472 26.107511 -0.848668